Amboy, Minnesota
Current Conditions -  °F | °C
As of 11:15 AM on Thursday 18 Dec 2014 (Local Time) from KJYG Reporting Station
Broken Clouds Broken Clouds  
Wind Chill: -7°   Ceiling: 900
Heat Index: -7°   Visibility: 10mi
Dew Point: -9°   Wind: 0mph
Humidity: 86%   Direction: NA
Pressure: 30.29"   Gusts: NA
Location:  43.89°N, 94.16°W
Report Text: KJYG 181715Z AUTO 00000KT 10SM BKN009 BKN075 M07/M09 A3029 RMK AO2
Loading
Personal Weather Stations






























Interactive Weather Map New forecast layout! Learn more

10-Day Weather Forecast

Advertisements
Track Severe Weather on mobile